Flight Track Log - Related Links

Times and Time Zones

All times are in EDT time to prevent confusion due to time zone crossing. See the RPA3253 flight status page for this flight to view local times or setup timezone preferences in your user account.

Time Position Orientation Groundspeed Altitude Reporting Facility
EDT Latitude Longitude Course Direction KTS MPH feet Rate Location/Type
Thu 10:44:28 PM 35.1911 -80.9508 246° West 161 185 1,500  Level Atlanta Center
Thu 10:45:17 PM 35.1475 -80.9603 190° South 204 235 2,700 1,568 Climbing Atlanta Center
Thu 10:45:56 PM 35.1300 -81.0067 245° Southwest 256 295 3,800 2,424 Climbing Atlanta Center
Thu 10:46:56 PM 35.1092 -81.0961 254° West 279 321 6,700 2,950 Climbing Atlanta Center
Thu 10:47:00 PM 35.1799 -81.2539 199° South  Level FlightAware Approximate
Thu 10:47:56 PM 35.0886 -81.1933 256° West 295 339 9,700  Level Atlanta Center
Thu 10:48:00 PM 35.0802 -81.2943 251° West  Level FlightAware Approximate
Thu 10:48:56 PM 35.0639 -81.2958 254° West 346 398 11,400  Level Atlanta Center
Thu 10:49:00 PM 35.0429 -81.4196 246° West  Level FlightAware Approximate
Thu 10:49:56 PM 35.0369 -81.4108 254° West 367 422 13,500  Level Atlanta Center
Thu 10:50:56 PM 35.0122 -81.5206 255° West 362 417 15,100 1,733 Climbing Atlanta Center
Thu 10:52:56 PM 34.9442 -81.7708 252° West 389 448 18,700 1,867 Climbing Atlanta Center
Thu 10:53:56 PM 34.8878 -81.8839 239° Southwest 389 448 20,700 1,750 Climbing Atlanta Center
Thu 10:54:56 PM 34.8250 -81.9942 235° Southwest 396 456 22,200 1,150 Climbing Atlanta Center
Thu 10:55:56 PM 34.7600 -82.1097 236° Southwest 407 468 23,000 500 Climbing Atlanta Center
Thu 10:56:56 PM 34.6950 -82.2222 235° Southwest 412 474 23,200 800 Climbing Atlanta Center
Thu 10:57:56 PM 34.6297 -82.3372 235° Southwest 412 474 24,600 1,550 Climbing Atlanta Center
Thu 10:58:56 PM 34.5644 -82.4522 235° Southwest 417 480 26,300 1,500 Climbing Atlanta Center
Thu 10:59:56 PM 34.4931 -82.5744 235° Southwest 417 480 27,600 1,050 Climbing Atlanta Center
Thu 11:00:56 PM 34.4294 -82.6789 234° Southwest 417 480 28,400 850 Climbing Atlanta Center
Thu 11:01:56 PM 34.3661 -82.7956 237° Southwest 428 493 29,300 850 Climbing Atlanta Center
Thu 11:02:56 PM 34.2942 -82.9147 234° Southwest 433 498 30,100 650 Climbing Atlanta Center
Thu 11:03:56 PM 34.2264 -83.0339 235° Southwest 433 498 30,600 650 Climbing Atlanta Center
Thu 11:04:56 PM 34.1564 -83.1525 235° Southwest 438 504 31,400 950 Climbing Atlanta Center
Thu 11:05:56 PM 34.0861 -83.2714 235° Southwest 438 504 32,500 950 Climbing Atlanta Center
Thu 11:06:56 PM 34.0117 -83.4022 236° Southwest 433 498 33,300 700 Climbing Atlanta Center
Thu 11:07:56 PM 33.9433 -83.5156 234° Southwest 433 498 33,900 550 Climbing Atlanta Center
Thu 11:08:56 PM 33.8750 -83.6308 234° Southwest 427 491 34,400 650 Climbing Atlanta Center
Thu 11:09:56 PM 33.8064 -83.7464 234° Southwest 432 497 35,200 600 Climbing Atlanta Center
Thu 11:10:56 PM 33.7397 -83.8564 234° Southwest 425 489 35,600 350 Climbing Atlanta Center
Thu 11:11:56 PM 33.6711 -83.9689 234° Southwest 425 489 35,900 200 Climbing Atlanta Center
Thu 11:12:56 PM 33.6042 -84.0861 236° Southwest 430 495 36,000 50 Climbing Atlanta Center
Thu 11:13:56 PM 33.5417 -84.1883 234° Southwest 430 495 36,000  Level Atlanta Center
Thu 11:14:56 PM 33.4725 -84.3053 235° Southwest 430 495 36,000  Level Atlanta Center
Thu 11:15:56 PM 33.4056 -84.4169 234° Southwest 430 495 36,000  Level Atlanta Center
Thu 11:16:56 PM 33.3361 -84.5311 234° Southwest 430 495 36,000  Level Atlanta Center
Thu 11:17:56 PM 33.2606 -84.6575 234° Southwest 430 495 36,000  Level Atlanta Center
Thu 11:18:56 PM 33.1931 -84.7686 234° Southwest 430 495 36,000  Level Atlanta Center
Thu 11:19:56 PM 33.1233 -84.8847 234° Southwest 430 495 36,000  Level Atlanta Center
Thu 11:20:56 PM 33.0536 -85.0006 234° Southwest 430 495 36,000  Level Atlanta Center
Thu 11:21:56 PM 32.9839 -85.1136 234° Southwest 435 501 36,000  Level Atlanta Center
Thu 11:22:56 PM 32.9225 -85.2069 232° Southwest 421 484 36,000  Level Atlanta Center
Thu 11:23:56 PM 32.8483 -85.3197 232° Southwest 421 484 36,000  Level Atlanta Center
Thu 11:24:56 PM 32.7803 -85.4347 235° Southwest 426 490 36,000  Level Atlanta Center
Thu 11:25:56 PM 32.7122 -85.5472 234° Southwest 432 497 36,000  Level Atlanta Center
Thu 11:26:56 PM 32.6397 -85.6594 233° Southwest 432 497 36,000  Level Atlanta Center
Thu 11:27:56 PM 32.5672 -85.7714 232° Southwest 432 497 36,000  Level Atlanta Center
Thu 11:28:56 PM 32.4925 -85.8908 233° Southwest 439 505 36,000  Level Atlanta Center
Thu 11:29:56 PM 32.4219 -86.0025 233° Southwest 444 511 36,000  Level Atlanta Center
Thu 11:30:56 PM 32.3489 -86.1189 233° Southwest 439 505 36,000  Level Atlanta Center
Thu 11:31:56 PM 32.2803 -86.2303 234° Southwest 439 505 36,000  Level Atlanta Center
Thu 11:32:56 PM 32.2072 -86.3511 234° Southwest 439 505 36,000  Level Atlanta Center
Thu 11:33:56 PM 32.1342 -86.4547 230° Southwest 434 499 36,000  Level Atlanta Center
Thu 11:34:56 PM 32.0569 -86.5631 230° Southwest 428 493 36,000  Level Atlanta Center
Thu 11:35:56 PM 31.9794 -86.6708 230° Southwest 434 499 36,000  Level Atlanta Center
Thu 11:36:56 PM 31.8892 -86.7881 228° Southwest 446 513 36,000  Level Atlanta Center
Thu 11:37:56 PM 31.8097 -86.8956 229° Southwest 446 513 36,000  Level Atlanta Center
Thu 11:38:56 PM 31.7300 -87.0031 229° Southwest 446 513 36,000  Level Atlanta Center
Thu 11:39:56 PM 31.6628 -87.1008 231° Southwest 446 513 36,000  Level Atlanta Center
Thu 11:40:56 PM 31.5850 -87.2078 230° Southwest 441 507 36,000  Level Atlanta Center
Thu 11:42:07 PM 31.4847 -87.3364 228° Southwest 434 499 36,000  Level Houston Center
Thu 11:43:08 PM 31.4069 -87.4439 230° Southwest 431 496 36,000  Level Houston Center
Thu 11:44:09 PM 31.3281 -87.5517 229° Southwest 434 499 36,000  Level Houston Center
Thu 11:45:10 PM 31.2483 -87.6589 229° Southwest 436 502 36,000  Level Houston Center
Thu 11:46:11 PM 31.1678 -87.7692 230° Southwest 434 499 36,000  Level Houston Center
Thu 11:47:12 PM 31.0878 -87.8756 229° Southwest 435 501 36,000  Level Houston Center
Thu 11:48:13 PM 31.0233 -87.9950 238° Southwest 435 501 36,000  Level Houston Center
Thu 11:49:14 PM 30.9667 -88.1228 243° Southwest 441 507 36,000  Level Houston Center
Thu 11:50:14 PM 30.9081 -88.2497 242° Southwest 448 516 36,000  Level Houston Center
Thu 11:51:15 PM 30.8533 -88.3747 243° Southwest 437 503 36,000  Level Houston Center
Thu 11:52:16 PM 30.7975 -88.4994 242° Southwest 434 499 36,000  Level Houston Center
Thu 11:53:17 PM 30.7383 -88.6317 243° Southwest 436 502 36,000 -984 Level Houston Center
Thu 11:54:18 PM 30.6817 -88.7581 242° Southwest 440 506 34,000 -2,331 Descending Houston Center
Thu 11:55:18 PM 30.6233 -88.8864 242° Southwest 448 516 31,300 -2,926 Descending Houston Center
Thu 11:56:19 PM 30.5561 -89.0350 242° Southwest 456 525 28,100 -2,902 Descending Houston Center
Thu 11:57:20 PM 30.5003 -89.1592 242° Southwest 440 506 25,400 -2,628 Descending Houston Center
Thu 11:58:20 PM 30.4450 -89.2822 243° Southwest 432 497 22,800 -2,529 Descending Houston Center
Thu 11:59:21 PM 30.3914 -89.4008 242° Southwest 420 483 20,300 -2,508 Descending Houston Center
Fri 12:00:22 AM 30.3389 -89.5150 242° Southwest 407 468 17,700 -2,579 Descending Houston Center
Fri 12:01:22 AM 30.2881 -89.6278 242° Southwest 394 453 15,100 -2,479 Descending Houston Center
Fri 12:02:23 AM 30.2381 -89.7367 242° Southwest 379 436 12,700 -1,820 Descending Houston Center
Fri 12:03:24 AM 30.1933 -89.8403 243° Southwest 364 419 11,400 -1,339 Descending Houston Center
Fri 12:04:24 AM 30.1561 -89.9256 243° Southwest 311 358 10,000 -1,587 Descending Houston Center
Fri 12:05:25 AM 30.1189 -90.0103 243° Southwest 298 343 8,200 -1,388 Descending Houston Center
Fri 12:06:25 AM 30.0842 -90.0903 243° Southwest 284 327 7,200 -694 Descending Houston Center
Fri 12:07:26 AM 30.0669 -90.1575 254° West 232 267 6,800 -934 Descending Houston Center
Fri 12:08:27 AM 30.0731 -90.2267 276° West 218 251 5,300 -1,475 Descending Houston Center
Fri 12:09:28 AM 30.0842 -90.2953 281° West 216 249 3,800 -1,438 Descending Houston Center
Fri 12:10:28 AM 30.0900 -90.3622 276° West 213 245 2,400 -893 Descending Houston Center
Fri 12:11:29 AM 30.0556 -90.3925 217° Southwest 208 239 2,000 -545 Descending Houston Center
Fri 12:12:29 AM 30.0164 -90.3628 147° Southeast 192 221 1,300 -700 Descending Houston Center

Login

Don't have an account? Register now (free) for customized features, flight alerts, and more!